createdAt,value
2023-01-29T00:29:32.055Z,1020.27
2023-01-29T00:30:12.521Z,1020.28
2023-01-29T00:30:52.971Z,1020.28
2023-01-29T00:31:33.609Z,1020.31
2023-01-29T00:32:14.069Z,1020.29
2023-01-29T00:32:54.432Z,1020.28
2023-01-29T00:33:34.964Z,1020.32
2023-01-29T00:34:15.499Z,1020.33
2023-01-29T00:34:56.023Z,1020.33
2023-01-29T00:35:36.553Z,1020.36
2023-01-29T00:36:17.067Z,1020.38
2023-01-29T00:36:57.583Z,1020.38
2023-01-29T00:37:38.027Z,1020.39
2023-01-29T00:38:18.536Z,1020.43
2023-01-29T00:38:59.075Z,1020.42
2023-01-29T00:39:47.683Z,1020.42
2023-01-29T00:40:20.110Z,1020.37
2023-01-29T00:41:00.629Z,1020.39
2023-01-29T00:41:41.087Z,1020.36
2023-01-29T00:42:21.619Z,1020.32
2023-01-29T00:43:02.116Z,1020.33
2023-01-29T00:43:42.591Z,1020.28
2023-01-29T00:44:23.059Z,1020.23
2023-01-29T00:45:03.733Z,1020.24
2023-01-29T00:45:44.070Z,1020.24
2023-01-29T00:46:24.593Z,1020.19
2023-01-29T00:47:05.084Z,1020.22
2023-01-29T00:47:45.556Z,1020.24
2023-01-29T00:48:26.024Z,1020.23
2023-01-29T00:49:46.958Z,1020.2
2023-01-29T00:50:27.414Z,1020.2
2023-01-29T00:51:07.918Z,1020.19
2023-01-29T00:51:48.398Z,1020.17
2023-01-29T00:52:28.915Z,1020.15
2023-01-29T00:53:09.392Z,1020.11
2023-01-29T00:53:49.927Z,1020.06
2023-01-29T00:54:32.408Z,1020.11
2023-01-29T00:55:10.969Z,1020.08
2023-01-29T00:55:51.434Z,1020.1
2023-01-29T00:56:31.924Z,1020.08
2023-01-29T00:57:12.393Z,1020.06
2023-01-29T00:57:52.910Z,1020.06
2023-01-29T00:58:33.429Z,1020.08
2023-01-29T00:59:54.533Z,1020.11
2023-01-29T01:00:34.981Z,1020.14
2023-01-29T01:01:15.463Z,1020.14
2023-01-29T01:01:56.016Z,1020.12
2023-01-29T01:02:36.439Z,1020.14
2023-01-29T01:03:16.980Z,1020.16
2023-01-29T01:03:57.467Z,1020.12
2023-01-29T01:04:37.959Z,1020.16
2023-01-29T01:05:18.462Z,1020.12
2023-01-29T01:05:58.933Z,1020.13
2023-01-29T01:06:39.456Z,1020.14
2023-01-29T01:07:19.954Z,1020.12
2023-01-29T01:08:00.500Z,1020.1
2023-01-29T01:08:40.965Z,1020.06
2023-01-29T01:09:21.447Z,1020.08
2023-01-29T01:10:01.929Z,1020.12
2023-01-29T01:10:42.383Z,1020.1
2023-01-29T01:11:22.882Z,1020.17
2023-01-29T01:12:03.379Z,1020.11
2023-01-29T01:12:43.879Z,1020.11
2023-01-29T01:13:24.381Z,1020.16
2023-01-29T01:14:04.847Z,1020.11
2023-01-29T01:14:45.332Z,1020.15
2023-01-29T01:15:25.847Z,1020.13
2023-01-29T01:16:06.350Z,1020.12
2023-01-29T01:16:46.841Z,1020.11
2023-01-29T01:18:07.827Z,1020.1
2023-01-29T01:18:48.310Z,1020.04
2023-01-29T01:19:28.807Z,1020.07
2023-01-29T01:20:09.315Z,1020.06
2023-01-29T01:20:49.813Z,1020.01
2023-01-29T01:21:30.299Z,1020.02
2023-01-29T01:22:10.792Z,1020.04
2023-01-29T01:22:51.301Z,1019.97
2023-01-29T01:23:31.812Z,1019.98
2023-01-29T01:24:12.342Z,1019.96
2023-01-29T01:24:52.825Z,1019.97
2023-01-29T01:25:33.322Z,1019.98
2023-01-29T01:26:13.838Z,1020.01
2023-01-29T01:26:54.297Z,1020
2023-01-29T01:27:34.816Z,1020.03
2023-01-29T01:30:48.401Z,1020.04
2023-01-29T01:31:29.232Z,1020.02
2023-01-29T01:32:09.665Z,1020.05
2023-01-29T01:32:50.141Z,1020.07
2023-01-29T01:33:30.638Z,1020.09
2023-01-29T01:34:11.103Z,1020.09
2023-01-29T01:34:51.628Z,1020.15
2023-01-29T01:35:32.131Z,1020.17
2023-01-29T01:36:12.640Z,1020.17
2023-01-29T01:36:53.117Z,1020.17
2023-01-29T01:37:33.601Z,1020.18
2023-01-29T01:38:14.089Z,1020.19
2023-01-29T01:38:54.557Z,1020.2
2023-01-29T01:39:35.047Z,1020.16
2023-01-29T01:40:15.765Z,1020.23
2023-01-29T01:40:56.034Z,1020.23
2023-01-29T01:41:36.495Z,1020.26
2023-01-29T01:42:16.975Z,1020.27
2023-01-29T01:42:57.457Z,1020.26
2023-01-29T01:43:37.958Z,1020.25
2023-01-29T01:44:19.309Z,1020.25
2023-01-29T01:44:59.850Z,1020.26
2023-01-29T01:45:40.365Z,1020.28
2023-01-29T01:46:20.877Z,1020.18
2023-01-29T01:47:01.349Z,1020.19
2023-01-29T01:48:22.323Z,1020.17
2023-01-29T01:49:03.552Z,1020.21
2023-01-29T01:49:44.059Z,1020.2
2023-01-29T01:50:24.526Z,1020.19
2023-01-29T01:51:05.040Z,1020.13
2023-01-29T01:51:45.554Z,1020.15
2023-01-29T01:52:26.038Z,1020.16
2023-01-29T01:53:06.514Z,1020.13
2023-01-29T01:53:46.974Z,1020.14
2023-01-29T01:54:27.464Z,1020.08
2023-01-29T01:55:07.983Z,1020.07
2023-01-29T01:55:48.464Z,1020.06
2023-01-29T01:56:29.011Z,1020.08
2023-01-29T01:57:09.471Z,1020.07
2023-01-29T01:57:49.964Z,1020.07
2023-01-29T01:58:30.471Z,1020.03
2023-01-29T01:59:10.926Z,1019.99
2023-01-29T01:59:51.356Z,1019.98
2023-01-29T02:01:12.413Z,1019.94
2023-01-29T02:01:52.934Z,1019.95
2023-01-29T02:02:33.417Z,1019.93
2023-01-29T02:03:13.898Z,1019.88
2023-01-29T02:03:54.433Z,1019.89
2023-01-29T02:04:34.881Z,1019.87
2023-01-29T02:05:15.383Z,1019.86
2023-01-29T02:05:55.860Z,1019.86
2023-01-29T02:06:36.332Z,1019.84
2023-01-29T02:07:16.839Z,1019.8
2023-01-29T02:07:57.336Z,1019.82
2023-01-29T02:08:37.864Z,1019.85
2023-01-29T02:09:18.349Z,1019.86
2023-01-29T02:09:58.845Z,1019.87
2023-01-29T02:10:39.361Z,1019.87
2023-01-29T02:11:19.841Z,1019.87
2023-01-29T02:12:00.338Z,1019.88
2023-01-29T02:12:40.795Z,1019.89
2023-01-29T02:13:21.301Z,1019.92
2023-01-29T02:14:42.265Z,1019.91
2023-01-29T02:15:22.760Z,1019.91
2023-01-29T02:16:03.238Z,1019.96
2023-01-29T02:16:43.730Z,1019.96
2023-01-29T02:17:24.260Z,1020
2023-01-29T02:18:04.715Z,1019.96
2023-01-29T02:18:45.183Z,1019.96
2023-01-29T02:19:25.715Z,1020.03
2023-01-29T02:20:06.153Z,1020
2023-01-29T02:20:46.650Z,1020
2023-01-29T02:21:27.306Z,1019.98
2023-01-29T02:22:07.818Z,1020.03
2023-01-29T02:22:48.290Z,1019.98
2023-01-29T02:23:28.856Z,1019.96
2023-01-29T02:24:09.365Z,1019.96
2023-01-29T02:25:30.262Z,1019.96
2023-01-29T02:26:10.762Z,1019.98
2023-01-29T02:26:51.256Z,1020.01
2023-01-29T02:27:31.814Z,1020
2023-01-29T02:28:12.226Z,1020
2023-01-29T02:28:52.688Z,1020.02
2023-01-29T02:29:33.216Z,1020.04
2023-01-29T02:30:14.977Z,1019.98
2023-01-29T02:30:54.209Z,1020.01
2023-01-29T02:31:34.692Z,1020
2023-01-29T02:32:15.129Z,1020.01
2023-01-29T02:32:55.618Z,1020.07
2023-01-29T02:33:36.152Z,1020.01
2023-01-29T02:34:16.626Z,1020.05
2023-01-29T02:34:57.098Z,1020.04
2023-01-29T02:35:37.642Z,1020.07
2023-01-29T02:36:18.103Z,1020.04
2023-01-29T02:36:59.504Z,1020.03
2023-01-29T02:37:39.991Z,1020
2023-01-29T02:38:20.471Z,1020
2023-01-29T02:39:00.954Z,1020.04
2023-01-29T02:39:41.422Z,1020
2023-01-29T02:40:21.926Z,1020
2023-01-29T02:41:02.386Z,1019.97
2023-01-29T02:41:42.917Z,1020.01
2023-01-29T02:42:23.359Z,1020.01
2023-01-29T02:43:03.843Z,1020.03
2023-01-29T02:43:44.329Z,1020.03
2023-01-29T02:44:24.805Z,1020.07
2023-01-29T02:45:05.324Z,1020.06
2023-01-29T02:46:26.278Z,1020.09
2023-01-29T02:47:06.799Z,1020.12
2023-01-29T02:47:47.274Z,1020.11
2023-01-29T02:48:27.730Z,1020.11
2023-01-29T02:49:08.257Z,1020.12
2023-01-29T02:49:48.763Z,1020.12
2023-01-29T02:50:29.287Z,1020.15
2023-01-29T02:51:09.833Z,1020.18
2023-01-29T02:51:50.309Z,1020.21
2023-01-29T02:52:30.808Z,1020.18
2023-01-29T02:53:11.276Z,1020.22
2023-01-29T02:53:51.784Z,1020.21
2023-01-29T02:54:32.311Z,1020.21
2023-01-29T02:55:12.795Z,1020.25
2023-01-29T02:55:53.283Z,1020.23
2023-01-29T02:56:33.791Z,1020.24
2023-01-29T02:57:14.269Z,1020.26
2023-01-29T02:57:54.808Z,1020.28
2023-01-29T02:58:35.314Z,1020.3
2023-01-29T02:59:15.805Z,1020.25
2023-01-29T02:59:56.272Z,1020.31
2023-01-29T03:00:36.807Z,1020.31
2023-01-29T03:01:17.364Z,1020.31
2023-01-29T03:01:57.779Z,1020.36
2023-01-29T03:02:38.285Z,1020.34
2023-01-29T03:03:18.741Z,1020.39
2023-01-29T03:03:59.238Z,1020.36
2023-01-29T03:04:39.721Z,1020.4
2023-01-29T03:05:20.185Z,1020.4
2023-01-29T03:06:00.660Z,1020.38
2023-01-29T03:06:41.148Z,1020.4
2023-01-29T03:07:21.648Z,1020.41
2023-01-29T03:08:02.191Z,1020.48
2023-01-29T03:08:42.658Z,1020.48
2023-01-29T03:09:23.164Z,1020.54
2023-01-29T03:10:03.635Z,1020.55
2023-01-29T03:10:44.150Z,1020.59
2023-01-29T03:11:24.610Z,1020.6
2023-01-29T03:12:05.104Z,1020.62
2023-01-29T03:12:45.645Z,1020.57
2023-01-29T03:13:26.078Z,1020.6
2023-01-29T03:14:06.527Z,1020.64
2023-01-29T03:14:47.064Z,1020.59
2023-01-29T03:15:27.580Z,1020.61
2023-01-29T03:16:08.086Z,1020.61
2023-01-29T03:16:48.728Z,1020.58
2023-01-29T03:17:29.055Z,1020.55
2023-01-29T03:18:09.515Z,1020.56
2023-01-29T03:18:50.017Z,1020.55
2023-01-29T03:19:30.494Z,1020.61
2023-01-29T03:20:11.012Z,1020.55
2023-01-29T03:20:51.503Z,1020.6
2023-01-29T03:21:31.969Z,1020.52
2023-01-29T03:22:12.471Z,1020.47
2023-01-29T03:22:52.990Z,1020.47
2023-01-29T03:23:33.461Z,1020.38
2023-01-29T03:24:13.998Z,1020.4
2023-01-29T03:24:54.455Z,1020.37
2023-01-29T03:25:34.991Z,1020.35
2023-01-29T03:26:15.543Z,1020.35
2023-01-29T03:26:56.021Z,1020.34
2023-01-29T03:27:36.463Z,1020.3
2023-01-29T03:28:16.993Z,1020.31
2023-01-29T03:28:57.479Z,1020.28
2023-01-29T03:29:37.962Z,1020.25
2023-01-29T03:30:18.700Z,1020.27
2023-01-29T03:30:58.982Z,1020.23
2023-01-29T03:31:39.647Z,1020.21
2023-01-29T03:32:19.990Z,1020.22
2023-01-29T03:33:00.480Z,1020.2
2023-01-29T03:33:41.008Z,1020.2
2023-01-29T03:34:21.480Z,1020.19
2023-01-29T03:35:01.968Z,1020.19
2023-01-29T03:35:42.455Z,1020.14
2023-01-29T03:36:22.912Z,1020.14
2023-01-29T03:37:03.400Z,1020.1
2023-01-29T03:37:43.894Z,1020.09
2023-01-29T03:38:24.472Z,1020.06
2023-01-29T03:39:04.906Z,1020.08
2023-01-29T03:39:45.408Z,1020.03
2023-01-29T03:40:25.876Z,1020
2023-01-29T03:41:06.366Z,1019.96
2023-01-29T03:41:46.936Z,1019.98
2023-01-29T03:42:27.340Z,1020.01
2023-01-29T03:43:07.835Z,1019.99
2023-01-29T03:43:48.298Z,1020.04
2023-01-29T03:44:28.776Z,1020.06
2023-01-29T03:45:09.268Z,1020.03
2023-01-29T03:45:49.744Z,1020.09
2023-01-29T03:46:30.316Z,1020.07
2023-01-29T03:47:10.804Z,1020.07
2023-01-29T03:47:51.283Z,1020.09
2023-01-29T03:48:31.736Z,1020.14
2023-01-29T03:49:12.247Z,1020.08
2023-01-29T03:49:52.791Z,1020.12
2023-01-29T03:50:33.277Z,1020.13
2023-01-29T03:51:13.794Z,1020.16
2023-01-29T03:51:54.246Z,1020.16
2023-01-29T03:52:34.693Z,1020.15
2023-01-29T03:53:15.195Z,1020.16
2023-01-29T03:53:55.692Z,1020.15
2023-01-29T03:54:36.147Z,1020.12
2023-01-29T03:55:16.664Z,1020.12
2023-01-29T03:55:57.134Z,1020.14
2023-01-29T03:56:37.639Z,1020.16
2023-01-29T03:57:18.110Z,1020.15
2023-01-29T03:57:58.656Z,1020.18
2023-01-29T03:58:39.164Z,1020.16
2023-01-29T03:59:19.661Z,1020.19
2023-01-29T04:00:00.153Z,1020.16
2023-01-29T04:00:40.669Z,1020.17
2023-01-29T04:01:21.266Z,1020.22
2023-01-29T04:02:01.633Z,1020.21
2023-01-29T04:02:42.220Z,1020.22
2023-01-29T04:03:22.701Z,1020.28
2023-01-29T04:04:03.199Z,1020.26
2023-01-29T04:04:43.647Z,1020.28
2023-01-29T04:05:24.153Z,1020.24
2023-01-29T04:06:04.607Z,1020.24
2023-01-29T04:06:45.127Z,1020.17
2023-01-29T04:07:25.571Z,1020.18
2023-01-29T04:08:06.052Z,1020.13
2023-01-29T04:08:46.571Z,1020.15
2023-01-29T04:09:27.029Z,1020.17
2023-01-29T04:10:07.562Z,1020.16
2023-01-29T04:10:48.058Z,1020.16
2023-01-29T04:11:28.549Z,1020.18
2023-01-29T04:12:09.131Z,1020.22
2023-01-29T04:12:49.566Z,1020.17
2023-01-29T04:13:30.056Z,1020.2
2023-01-29T04:14:10.544Z,1020.18
2023-01-29T04:14:51.048Z,1020.15
2023-01-29T04:15:31.553Z,1020.15
2023-01-29T04:16:12.077Z,1020.14
2023-01-29T04:16:52.487Z,1020.14
2023-01-29T04:17:33.052Z,1020.14
2023-01-29T04:18:13.496Z,1020.15
2023-01-29T04:18:53.987Z,1020.13
2023-01-29T04:22:22.890Z,1020.08
2023-01-29T04:23:03.372Z,1020.08
2023-01-29T04:23:43.746Z,1020.11
2023-01-29T04:24:24.294Z,1020.08
2023-01-29T04:27:37.933Z,1020.02
2023-01-29T04:28:18.299Z,1020.02
2023-01-29T04:28:58.827Z,1019.98
2023-01-29T04:29:39.301Z,1019.98
2023-01-29T04:30:19.775Z,1019.98
2023-01-29T04:31:00.315Z,1019.96
2023-01-29T04:31:40.942Z,1019.92
2023-01-29T04:33:01.826Z,1019.86
2023-01-29T04:33:42.266Z,1019.82
2023-01-29T04:34:22.767Z,1019.79
2023-01-29T04:35:03.278Z,1019.76
2023-01-29T04:35:43.788Z,1019.74
2023-01-29T04:36:24.975Z,1019.75
2023-01-29T04:37:05.451Z,1019.78
2023-01-29T04:37:45.942Z,1019.79
2023-01-29T04:38:26.396Z,1019.82
2023-01-29T04:39:06.870Z,1019.78
2023-01-29T04:39:47.338Z,1019.84
2023-01-29T04:40:27.820Z,1019.8
2023-01-29T04:41:08.275Z,1019.74
2023-01-29T04:41:48.721Z,1019.74
2023-01-29T04:43:09.680Z,1019.71
2023-01-29T04:43:50.165Z,1019.74
2023-01-29T04:44:30.638Z,1019.73
2023-01-29T04:45:11.110Z,1019.74
2023-01-29T04:45:51.608Z,1019.74
2023-01-29T04:46:32.097Z,1019.69
2023-01-29T04:47:12.638Z,1019.72
2023-01-29T04:47:53.062Z,1019.71
2023-01-29T04:48:33.552Z,1019.68
2023-01-29T04:49:14.068Z,1019.65
2023-01-29T04:49:54.546Z,1019.67
2023-01-29T04:50:35.037Z,1019.68
2023-01-29T04:51:15.497Z,1019.68
2023-01-29T04:51:56.958Z,1019.67
2023-01-29T04:52:36.442Z,1019.69
2023-01-29T04:53:16.931Z,1019.68
2023-01-29T04:53:57.391Z,1019.63
2023-01-29T04:54:37.873Z,1019.66
2023-01-29T04:55:18.322Z,1019.64
2023-01-29T04:55:58.793Z,1019.68
2023-01-29T04:56:39.254Z,1019.66
2023-01-29T04:57:19.759Z,1019.69
2023-01-29T04:58:40.710Z,1019.62
2023-01-29T04:59:21.182Z,1019.62
2023-01-29T05:00:01.684Z,1019.63
2023-01-29T05:00:42.138Z,1019.65
2023-01-29T05:01:22.636Z,1019.63
2023-01-29T05:02:03.116Z,1019.62
2023-01-29T05:02:43.637Z,1019.63
2023-01-29T05:03:24.059Z,1019.62
2023-01-29T05:04:04.550Z,1019.64
2023-01-29T05:04:45.022Z,1019.67
2023-01-29T05:06:05.954Z,1019.66
2023-01-29T05:06:46.469Z,1019.6
2023-01-29T05:07:26.943Z,1019.58
2023-01-29T05:08:07.465Z,1019.59
2023-01-29T05:08:47.956Z,1019.59
2023-01-29T05:09:28.412Z,1019.56
2023-01-29T05:10:08.874Z,1019.54
2023-01-29T05:10:49.370Z,1019.51
2023-01-29T05:11:29.855Z,1019.5
2023-01-29T05:12:10.336Z,1019.43
2023-01-29T05:12:50.781Z,1019.49
2023-01-29T05:13:31.258Z,1019.43
2023-01-29T05:14:11.780Z,1019.43
2023-01-29T05:14:52.276Z,1019.44
2023-01-29T05:15:32.752Z,1019.42
2023-01-29T05:16:13.321Z,1019.5
2023-01-29T05:16:53.696Z,1019.48
2023-01-29T05:17:34.156Z,1019.51
2023-01-29T05:18:14.631Z,1019.46
2023-01-29T05:18:55.185Z,1019.42
2023-01-29T05:19:35.695Z,1019.45
2023-01-29T05:20:16.534Z,1019.43
2023-01-29T05:20:56.642Z,1019.45
2023-01-29T05:21:37.924Z,1019.45
2023-01-29T05:22:17.588Z,1019.49
2023-01-29T05:22:58.087Z,1019.52
2023-01-29T05:23:38.566Z,1019.53
2023-01-29T05:24:19.153Z,1019.52
2023-01-29T05:24:59.565Z,1019.56
2023-01-29T05:25:40.038Z,1019.57
2023-01-29T05:26:20.539Z,1019.6
2023-01-29T05:27:01.023Z,1019.62
2023-01-29T05:27:41.462Z,1019.63
2023-01-29T05:28:21.939Z,1019.68
2023-01-29T05:29:02.437Z,1019.69
2023-01-29T05:29:42.919Z,1019.67
2023-01-29T05:30:23.437Z,1019.73
2023-01-29T05:31:04.006Z,1019.69
2023-01-29T05:31:44.489Z,1019.68
2023-01-29T05:32:25.534Z,1019.63
2023-01-29T05:33:06.009Z,1019.59
2023-01-29T05:33:46.477Z,1019.59
2023-01-29T05:34:27.043Z,1019.59
2023-01-29T05:35:07.547Z,1019.59
2023-01-29T05:35:48.044Z,1019.57
2023-01-29T05:36:28.517Z,1019.57
2023-01-29T05:37:08.996Z,1019.56
2023-01-29T05:37:49.501Z,1019.57
2023-01-29T05:38:29.995Z,1019.5
2023-01-29T05:39:10.477Z,1019.49
2023-01-29T05:39:50.967Z,1019.43
2023-01-29T05:40:31.453Z,1019.43
2023-01-29T05:41:11.976Z,1019.41
2023-01-29T05:41:52.470Z,1019.37
2023-01-29T05:42:32.919Z,1019.41
2023-01-29T05:43:13.394Z,1019.45
2023-01-29T05:43:53.883Z,1019.47
2023-01-29T05:44:34.363Z,1019.44
2023-01-29T05:45:14.828Z,1019.47
2023-01-29T05:45:55.339Z,1019.47
2023-01-29T05:46:35.856Z,1019.48
2023-01-29T05:47:16.328Z,1019.46
2023-01-29T05:47:56.817Z,1019.5
2023-01-29T05:48:37.295Z,1019.5
2023-01-29T05:49:17.813Z,1019.45
2023-01-29T05:49:58.270Z,1019.52
2023-01-29T05:50:38.767Z,1019.49
2023-01-29T05:51:19.233Z,1019.53
2023-01-29T05:51:59.695Z,1019.52
2023-01-29T05:52:40.194Z,1019.56
2023-01-29T05:53:20.661Z,1019.54
2023-01-29T05:54:01.117Z,1019.54
2023-01-29T05:54:41.601Z,1019.52
2023-01-29T06:32:26.546Z,1019.47
2023-01-29T06:33:07.043Z,1019.46
2023-01-29T06:33:47.506Z,1019.44
2023-01-29T06:34:27.977Z,1019.42
2023-01-29T06:35:08.491Z,1019.43
2023-01-29T06:35:48.974Z,1019.42
2023-01-29T06:36:29.483Z,1019.38
2023-01-29T06:37:09.963Z,1019.45
2023-01-29T06:37:50.444Z,1019.5
2023-01-29T06:38:30.963Z,1019.48
2023-01-29T06:39:11.440Z,1019.58
2023-01-29T06:39:51.941Z,1019.57
2023-01-29T06:40:32.418Z,1019.59
2023-01-29T06:41:12.895Z,1019.66
2023-01-29T06:41:53.402Z,1019.62
2023-01-29T06:42:33.867Z,1019.61
2023-01-29T06:43:14.345Z,1019.65
2023-01-29T06:43:54.858Z,1019.7
2023-01-29T06:44:35.345Z,1019.77
2023-01-29T06:45:15.810Z,1019.76
2023-01-29T06:45:56.330Z,1019.79
2023-01-29T06:46:36.760Z,1019.82
2023-01-29T06:47:17.226Z,1019.85
2023-01-29T06:47:59.330Z,1019.89
2023-01-29T06:48:38.202Z,1019.91
2023-01-29T06:49:18.712Z,1019.9
2023-01-29T06:49:59.192Z,1019.9
2023-01-29T06:50:39.707Z,1019.91
2023-01-29T06:51:20.182Z,1019.93
2023-01-29T06:52:00.670Z,1019.96
2023-01-29T06:52:41.190Z,1019.97
2023-01-29T06:53:21.644Z,1019.99
2023-01-29T06:54:02.107Z,1020.03
2023-01-29T06:54:42.605Z,1020.03
2023-01-29T06:55:23.081Z,1020.05
2023-01-29T06:56:03.516Z,1020.06
2023-01-29T06:56:44.017Z,1020.07
2023-01-29T06:57:24.520Z,1020.08
2023-01-29T06:58:05.014Z,1020.06
2023-01-29T06:58:45.514Z,1019.81
2023-01-29T06:59:25.991Z,1020.06
2023-01-29T07:00:06.443Z,1020.05
2023-01-29T07:00:46.962Z,1020.05
2023-01-29T07:01:35.934Z,1020.08
2023-01-29T07:02:07.962Z,1020.08
2023-01-29T07:02:48.389Z,1020.09
2023-01-29T07:03:28.898Z,1020.11
2023-01-29T07:04:49.882Z,1020.11
2023-01-29T07:05:30.356Z,1020.11
2023-01-29T07:06:10.835Z,1020.08
2023-01-29T07:06:51.323Z,1020.08
2023-01-29T07:07:31.811Z,1020.08
2023-01-29T07:08:12.274Z,1020.04
2023-01-29T07:08:52.764Z,1020.01
2023-01-29T07:09:33.269Z,1020.01
2023-01-29T07:10:13.778Z,1019.98
2023-01-29T07:10:54.231Z,1019.97
2023-01-29T07:11:34.714Z,1019.95
2023-01-29T07:12:15.212Z,1019.94
2023-01-29T07:12:55.745Z,1019.93
2023-01-29T07:13:36.226Z,1019.94
2023-01-29T07:14:16.658Z,1019.97
2023-01-29T07:14:57.144Z,1020
2023-01-29T07:15:37.643Z,1019.98
2023-01-29T07:16:18.092Z,1019.96
2023-01-29T07:16:58.588Z,1019.96
2023-01-29T07:17:39.087Z,1019.91
2023-01-29T07:18:19.560Z,1019.93
2023-01-29T07:19:00.098Z,1019.92
2023-01-29T07:19:40.604Z,1019.92
2023-01-29T07:20:21.051Z,1019.9
2023-01-29T07:21:01.514Z,1019.89
2023-01-29T07:21:41.999Z,1019.86
2023-01-29T07:22:22.481Z,1019.82
2023-01-29T07:23:02.965Z,1019.83
2023-01-29T07:23:43.398Z,1019.79
2023-01-29T07:24:23.863Z,1019.76
2023-01-29T07:25:04.380Z,1019.79
2023-01-29T07:25:44.836Z,1019.78
2023-01-29T07:26:25.334Z,1019.76
2023-01-29T07:27:05.795Z,1019.77
2023-01-29T07:27:46.275Z,1019.8
2023-01-29T07:28:26.751Z,1019.79
2023-01-29T07:29:47.682Z,1019.84
2023-01-29T07:30:28.214Z,1019.78
2023-01-29T07:31:08.678Z,1019.84
2023-01-29T07:31:49.221Z,1019.85
2023-01-29T07:32:29.657Z,1019.88
2023-01-29T07:33:10.119Z,1019.89
2023-01-29T07:33:50.617Z,1019.89
2023-01-29T07:34:31.152Z,1019.94
2023-01-29T07:35:11.582Z,1019.9
2023-01-29T07:35:52.065Z,1019.9
2023-01-29T07:36:32.593Z,1019.9
2023-01-29T07:37:13.050Z,1019.88
2023-01-29T07:37:53.528Z,1019.84
2023-01-29T07:38:34.072Z,1019.86
2023-01-29T07:39:14.528Z,1019.83
2023-01-29T07:39:54.995Z,1019.9
2023-01-29T07:40:35.494Z,1019.85
2023-01-29T07:41:15.989Z,1019.92
2023-01-29T07:41:56.501Z,1019.92
2023-01-29T07:42:36.952Z,1019.96
2023-01-29T07:43:17.480Z,1019.96
2023-01-29T07:43:57.870Z,1019.93
2023-01-29T07:44:38.373Z,1019.9
2023-01-29T07:45:18.859Z,1019.88
2023-01-29T07:45:59.375Z,1019.9
2023-01-29T07:47:20.341Z,1019.9
2023-01-29T07:48:00.819Z,1019.92
2023-01-29T07:48:41.295Z,1019.93
2023-01-29T07:49:21.785Z,1019.93
2023-01-29T07:50:02.260Z,1019.93
2023-01-29T07:50:42.804Z,1019.95
2023-01-29T07:51:23.271Z,1019.93
2023-01-29T07:52:03.774Z,1019.95
2023-01-29T07:52:44.256Z,1019.92
2023-01-29T07:53:24.733Z,1019.92
2023-01-29T07:54:05.217Z,1019.93
2023-01-29T07:54:45.725Z,1019.93
2023-01-29T07:55:26.188Z,1019.93
2023-01-29T07:56:06.651Z,1019.92
2023-01-29T07:56:47.134Z,1019.91
2023-01-29T07:57:27.623Z,1019.96
2023-01-29T07:58:08.121Z,1019.91
2023-01-29T07:58:48.565Z,1019.92
2023-01-29T07:59:29.095Z,1019.92
2023-01-29T08:00:09.559Z,1019.91
2023-01-29T08:00:50.144Z,1019.93
2023-01-29T08:01:30.569Z,1019.87
2023-01-29T08:02:11.143Z,1019.87
2023-01-29T08:02:51.559Z,1019.85
2023-01-29T08:03:32.063Z,1019.88
2023-01-29T08:04:12.560Z,1019.83
2023-01-29T08:04:53.104Z,1019.87
2023-01-29T08:05:33.699Z,1019.86
2023-01-29T08:06:14.114Z,1019.9
2023-01-29T08:06:55.533Z,1019.85
2023-01-29T08:07:36.020Z,1019.83
2023-01-29T08:08:16.497Z,1019.83
2023-01-29T08:08:57.015Z,1019.86
2023-01-29T08:09:37.518Z,1019.8
2023-01-29T08:10:18.280Z,1019.83
2023-01-29T08:10:58.504Z,1019.82
2023-01-29T08:12:19.412Z,1019.82
2023-01-29T08:12:59.940Z,1019.87
2023-01-29T08:13:40.408Z,1019.83
2023-01-29T08:15:01.401Z,1019.92
2023-01-29T08:15:41.887Z,1019.9
2023-01-29T08:16:22.448Z,1019.89
2023-01-29T08:17:02.904Z,1019.93
2023-01-29T08:17:56.279Z,1019.93
2023-01-29T08:18:23.870Z,1019.92
2023-01-29T08:19:44.823Z,1019.97
2023-01-29T08:20:25.341Z,1019.96
2023-01-29T08:21:05.809Z,1019.92
2023-01-29T08:21:46.277Z,1019.91
2023-01-29T08:22:26.775Z,1019.89
2023-01-29T08:23:07.246Z,1019.91
2023-01-29T08:23:47.754Z,1019.9
2023-01-29T08:24:31.346Z,1019.89
2023-01-29T08:25:08.893Z,1019.84
2023-01-29T08:25:49.190Z,1019.77
2023-01-29T08:26:29.667Z,1019.78
2023-01-29T08:27:10.117Z,1019.77
2023-01-29T08:27:50.627Z,1019.76
2023-01-29T08:28:31.123Z,1019.76
2023-01-29T08:29:11.636Z,1019.75
2023-01-29T08:29:52.158Z,1019.78
2023-01-29T08:30:32.636Z,1019.84
2023-01-29T08:31:13.225Z,1019.81
2023-01-29T08:31:53.644Z,1019.83
2023-01-29T08:32:34.073Z,1019.82
2023-01-29T08:33:14.631Z,1019.83
2023-01-29T08:33:55.025Z,1019.89
2023-01-29T08:34:35.532Z,1019.88
2023-01-29T08:35:16.044Z,1019.91
2023-01-29T08:35:56.498Z,1019.93
2023-01-29T08:36:36.968Z,1019.97
2023-01-29T08:37:17.486Z,1019.98
2023-01-29T08:37:58.050Z,1019.92
2023-01-29T08:38:38.584Z,1020
2023-01-29T08:39:18.979Z,1019.99
2023-01-29T08:39:59.460Z,1019.96
2023-01-29T08:40:39.924Z,1019.97
2023-01-29T08:41:20.389Z,1020.01
2023-01-29T08:42:00.938Z,1019.93
2023-01-29T08:42:41.392Z,1020.01
2023-01-29T08:43:21.864Z,1019.99
2023-01-29T08:44:42.814Z,1019.92
2023-01-29T08:45:23.373Z,1019.94
2023-01-29T08:46:03.898Z,1019.92
2023-01-29T08:46:44.365Z,1019.91
2023-01-29T08:47:24.883Z,1019.93
2023-01-29T08:48:05.347Z,1019.89
2023-01-29T08:48:45.799Z,1019.92
2023-01-29T08:49:26.352Z,1019.92
2023-01-29T08:50:06.855Z,1019.88
2023-01-29T08:50:47.334Z,1019.89
2023-01-29T08:51:27.806Z,1019.9
2023-01-29T08:52:08.266Z,1019.91
2023-01-29T08:52:48.745Z,1019.91
2023-01-29T08:53:29.252Z,1019.87
2023-01-29T08:54:50.238Z,1019.88
2023-01-29T08:55:30.730Z,1019.9
2023-01-29T08:56:11.222Z,1019.85
2023-01-29T08:59:30.004Z,1019.73
2023-01-29T09:00:10.495Z,1019.77
2023-01-29T09:00:51.051Z,1019.79
2023-01-29T09:01:31.536Z,1019.75
2023-01-29T09:02:12.539Z,1019.74
2023-01-29T09:02:53.004Z,1019.79
2023-01-29T09:03:33.516Z,1019.81
2023-01-29T09:04:13.993Z,1019.79
2023-01-29T09:04:54.472Z,1019.8
2023-01-29T09:05:34.946Z,1019.82
2023-01-29T09:06:15.434Z,1019.73
2023-01-29T09:06:55.900Z,1019.71
2023-01-29T09:07:36.402Z,1019.74
2023-01-29T09:08:16.927Z,1019.69
2023-01-29T09:08:57.429Z,1019.72
2023-01-29T09:09:37.946Z,1019.66
2023-01-29T09:10:18.430Z,1019.72
2023-01-29T09:10:58.955Z,1019.44
2023-01-29T09:11:39.438Z,1019.71
2023-01-29T09:12:19.905Z,1019.7
2023-01-29T09:13:00.375Z,1019.65
2023-01-29T09:13:40.905Z,1019.65
2023-01-29T09:14:21.369Z,1019.7
2023-01-29T09:15:01.893Z,1019.67
2023-01-29T09:15:42.408Z,1019.72
2023-01-29T09:16:22.879Z,1019.72
2023-01-29T09:17:03.438Z,1019.76
2023-01-29T09:17:58.873Z,1019.76
2023-01-29T09:18:39.409Z,1019.78
2023-01-29T09:19:19.901Z,1019.78
2023-01-29T09:20:00.396Z,1019.77
2023-01-29T09:20:40.955Z,1019.78
2023-01-29T09:21:21.449Z,1019.77
2023-01-29T09:22:01.947Z,1019.76
2023-01-29T09:22:42.443Z,1019.76
2023-01-29T09:23:22.907Z,1019.79
2023-01-29T09:24:03.405Z,1019.76
2023-01-29T09:24:43.879Z,1019.74
2023-01-29T09:25:24.346Z,1019.77
2023-01-29T09:26:04.861Z,1019.78
2023-01-29T09:26:45.487Z,1019.79
2023-01-29T09:27:25.871Z,1019.77
2023-01-29T09:28:06.375Z,1019.78
2023-01-29T09:28:46.807Z,1019.81
2023-01-29T09:29:27.295Z,1019.76
2023-01-29T09:30:07.832Z,1019.75
2023-01-29T09:30:48.493Z,1019.75
2023-01-29T09:31:28.994Z,1019.75
2023-01-29T09:32:09.375Z,1019.72
2023-01-29T09:32:53.449Z,1019.74
2023-01-29T09:33:30.345Z,1019.68
2023-01-29T09:34:11.745Z,1019.67
2023-01-29T09:34:52.208Z,1019.72
2023-01-29T09:35:32.739Z,1019.65
2023-01-29T09:36:13.180Z,1019.66
2023-01-29T09:36:53.672Z,1019.66
2023-01-29T09:37:34.124Z,1019.66
2023-01-29T09:38:14.618Z,1019.61
2023-01-29T09:38:55.074Z,1019.63
2023-01-29T09:39:35.565Z,1019.6
2023-01-29T09:40:17.030Z,1019.58
2023-01-29T09:40:57.514Z,1019.61
2023-01-29T09:41:38.018Z,1019.61
2023-01-29T09:42:59.043Z,1019.68